Time;durP1;ratioP1;P1;durP2;ratioP2;P2;SDS_P1;SDS_P2;PMS_P1;PMS_P2;Temp;Humidity;BMP_temperature;BMP_pressure;BME280_temperature;BME280_humidity;BME280_pressure;Samples;Min_cycle;Max_cycle;Signal;HPM_P1;HPM_P2
2021/11/20 00:00:30;;;;;;;67.43;38.35;;;6.60;99.90;;;;;;5051420;28;20457;-74
2021/11/20 00:02:56;;;;;;;67.07;37.17;;;6.50;99.90;;;;;;5041097;28;20037;-74
2021/11/20 00:05:32;;;;;;;70.88;39.40;;;6.60;99.90;;;;;;5047648;28;20025;-74
2021/11/20 00:07:58;;;;;;;75.30;41.00;;;6.50;99.90;;;;;;5039306;28;20022;-74
2021/11/20 00:10:28;;;;;;;70.30;39.00;;;6.50;99.90;;;;;;5040499;28;20025;-74
2021/11/20 00:12:54;;;;;;;71.15;39.42;;;6.50;99.90;;;;;;5034617;28;20033;-74
2021/11/20 00:15:24;;;;;;;69.05;38.28;;;6.60;99.90;;;;;;5043861;28;20033;-74
2021/11/20 00:17:50;;;;;;;68.70;38.70;;;6.60;99.90;;;;;;5043110;28;20021;-73
2021/11/20 00:20:19;;;;;;;72.78;39.58;;;6.60;99.90;;;;;;5042038;28;20144;-74
2021/11/20 00:22:46;;;;;;;71.07;40.90;;;6.60;99.90;;;;;;5035949;28;20039;-74
2021/11/20 00:25:21;;;;;;;67.85;37.53;;;6.60;99.90;;;;;;5041025;28;20017;-75
2021/11/20 00:27:49;;;;;;;68.45;38.35;;;6.50;99.90;;;;;;5043839;28;20101;-74
2021/11/20 00:30:20;;;;;;;71.25;40.50;;;6.50;99.90;;;;;;5032425;28;20032;-75
2021/11/20 00:32:58;;;;;;;64.55;38.13;;;6.60;99.90;;;;;;5043546;28;20479;-74
2021/11/20 00:35:28;;;;;;;64.47;36.88;;;6.60;99.90;;;;;;5041406;28;20501;-74
2021/11/20 00:37:53;;;;;;;68.07;38.28;;;6.60;99.90;;;;;;5038725;28;20390;-74
2021/11/20 00:40:31;;;;;;;67.78;36.95;;;6.50;99.90;;;;;;5041655;28;20105;-73
2021/11/20 00:42:58;;;;;;;67.40;38.15;;;6.60;99.90;;;;;;5041368;28;20025;-73
2021/11/20 00:45:23;;;;;;;66.22;39.50;;;6.60;99.90;;;;;;5042713;28;20499;-74
2021/11/20 00:47:49;;;;;;;67.32;36.63;;;6.50;99.90;;;;;;5044649;28;20025;-75
2021/11/20 00:50:17;;;;;;;69.38;39.40;;;6.60;99.90;;;;;;5037600;28;20021;-74
2021/11/20 00:52:43;;;;;;;65.57;38.10;;;6.60;99.90;;;;;;5045764;28;20156;-75
2021/11/20 00:55:13;;;;;;;66.90;37.45;;;6.50;99.90;;;;;;5039915;28;20500;-74
2021/11/20 00:57:40;;;;;;;64.75;36.85;;;6.50;99.90;;;;;;5044606;28;20034;-74
2021/11/20 01:00:07;;;;;;;66.43;38.20;;;6.60;99.90;;;;;;5046435;28;20032;-74
2021/11/20 01:02:33;;;;;;;63.55;36.75;;;6.60;99.90;;;;;;5034975;28;20431;-76
2021/11/20 01:04:59;;;;;;;67.28;36.55;;;6.60;99.90;;;;;;5044049;28;20032;-73
2021/11/20 01:07:24;;;;;;;64.13;37.38;;;6.60;99.90;;;;;;5043978;28;20025;-74
2021/11/20 01:09:50;;;;;;;62.17;36.38;;;6.60;99.90;;;;;;5033735;28;20013;-75
2021/11/20 01:12:19;;;;;;;59.35;35.97;;;6.60;99.90;;;;;;5042183;28;20055;-75
2021/11/20 01:14:47;;;;;;;61.67;35.53;;;6.60;99.90;;;;;;5044658;28;20021;-75
2021/11/20 01:17:14;;;;;;;60.10;35.45;;;6.60;99.90;;;;;;5042253;28;20029;-74
2021/11/20 01:19:41;;;;;;;59.58;36.10;;;6.60;99.90;;;;;;5043278;28;20044;-75
2021/11/20 01:22:11;;;;;;;61.53;36.67;;;6.60;99.90;;;;;;5040158;28;20018;-75
2021/11/20 01:24:37;;;;;;;65.10;36.67;;;6.60;99.90;;;;;;5030075;28;20024;-75
2021/11/20 01:27:03;;;;;;;60.00;35.90;;;6.60;99.90;;;;;;5042641;28;20018;-75
2021/11/20 01:29:29;;;;;;;65.10;36.75;;;6.60;99.90;;;;;;5035708;28;20044;-74
2021/11/20 01:31:56;;;;;;;59.50;36.13;;;6.60;99.90;;;;;;5039888;28;20488;-75
2021/11/20 01:34:23;;;;;;;60.63;35.67;;;6.60;99.90;;;;;;5041430;28;20033;-75
2021/11/20 01:36:50;;;;;;;61.95;35.88;;;6.60;99.90;;;;;;5042564;28;20037;-75
2021/11/20 01:39:22;;;;;;;60.85;36.20;;;6.60;99.90;;;;;;5040147;28;20075;-75
2021/11/20 01:41:54;;;;;;;59.72;36.45;;;6.70;99.90;;;;;;5033618;28;20033;-74
2021/11/20 01:44:23;;;;;;;59.17;35.92;;;6.70;99.90;;;;;;5038638;28;20108;-73
2021/11/20 01:46:56;;;;;;;58.42;34.22;;;6.70;99.90;;;;;;5044207;28;20022;-74
2021/11/20 01:49:29;;;;;;;57.88;34.28;;;6.70;99.90;;;;;;5039722;28;20025;-75
2021/11/20 01:52:09;;;;;;;62.28;35.53;;;6.70;99.90;;;;;;5046153;28;20025;-76
2021/11/20 01:54:42;;;;;;;56.97;33.88;;;6.70;99.90;;;;;;5039796;28;20108;-76
2021/11/20 01:57:42;;;;;;;60.55;35.55;;;6.70;99.90;;;;;;5042829;28;20044;-76
2021/11/20 02:00:23;;;;;;;58.58;35.92;;;6.60;99.90;;;;;;5046298;28;20029;-76
2021/11/20 02:03:09;;;;;;;59.22;36.25;;;6.60;99.90;;;;;;5045374;28;20527;-76
2021/11/20 02:05:49;;;;;;;58.83;35.13;;;6.60;99.90;;;;;;5036659;28;20021;-76
2021/11/20 02:08:39;;;;;;;55.17;34.90;;;6.60;99.90;;;;;;5043293;28;20028;-76
2021/11/20 02:11:23;;;;;;;60.00;35.08;;;6.70;99.90;;;;;;5034472;28;20034;-76
2021/11/20 02:13:50;;;;;;;55.58;34.88;;;6.70;99.90;;;;;;5037855;28;20029;-76
2021/11/20 02:16:23;;;;;;;57.03;34.90;;;6.70;99.90;;;;;;5043867;28;20040;-75
2021/11/20 02:18:58;;;;;;;58.05;34.17;;;6.70;99.90;;;;;;5045392;28;20476;-76
2021/11/20 02:21:36;;;;;;;59.55;35.65;;;6.70;99.90;;;;;;5043324;28;20489;-76
2021/11/20 02:24:01;;;;;;;57.97;34.67;;;6.70;99.90;;;;;;5042360;28;20365;-76
2021/11/20 02:26:27;;;;;;;55.35;34.08;;;6.70;99.90;;;;;;5048181;28;20032;-77
2021/11/20 02:28:54;;;;;;;57.00;33.60;;;6.70;99.90;;;;;;5042575;28;20029;-76
2021/11/20 02:31:20;;;;;;;58.67;34.30;;;6.70;99.90;;;;;;5044159;28;20396;-76
2021/11/20 02:33:49;;;;;;;60.42;35.25;;;6.70;99.90;;;;;;5043966;28;20017;-77
2021/11/20 02:36:21;;;;;;;57.53;34.58;;;6.70;99.90;;;;;;5042517;28;20387;-77
2021/11/20 02:38:56;;;;;;;63.25;35.50;;;6.70;99.90;;;;;;5037032;28;20032;-74
2021/11/20 02:41:22;;;;;;;58.03;34.67;;;6.70;99.90;;;;;;5044817;28;20021;-75
2021/11/20 02:43:51;;;;;;;59.35;34.83;;;6.70;99.90;;;;;;5040987;28;20511;-75
2021/11/20 02:46:23;;;;;;;57.05;36.38;;;6.80;99.90;;;;;;5045268;28;20025;-75
2021/11/20 02:48:50;;;;;;;57.78;35.05;;;6.70;99.90;;;;;;5043309;28;20025;-76
2021/11/20 02:51:26;;;;;;;59.35;35.08;;;6.70;99.90;;;;;;5043079;28;20028;-76
2021/11/20 02:53:59;;;;;;;;;;;6.70;99.90;;;;;;5044233;28;20033;-76
2021/11/20 02:56:30;;;;;;;58.63;35.03;;;6.60;99.90;;;;;;5041198;28;19911;-75
2021/11/20 02:58:56;;;;;;;57.25;33.58;;;6.60;99.90;;;;;;5048055;28;20086;-76
2021/11/20 03:01:27;;;;;;;58.10;33.72;;;6.60;99.90;;;;;;5049669;28;20026;-75
2021/11/20 03:03:54;;;;;;;59.10;34.83;;;6.70;99.90;;;;;;5045417;28;20036;-75
2021/11/20 03:06:19;;;;;;;58.78;35.05;;;6.70;99.90;;;;;;5042541;28;20053;-77
2021/11/20 03:08:45;;;;;;;60.42;36.20;;;6.70;99.90;;;;;;5034933;28;20052;-76
2021/11/20 03:11:13;;;;;;;60.58;34.92;;;6.70;99.90;;;;;;5040564;28;20029;-76
2021/11/20 03:13:41;;;;;;;55.95;33.42;;;6.70;99.90;;;;;;5045237;28;20017;-76
2021/11/20 03:16:07;;;;;;;58.72;34.20;;;6.70;99.90;;;;;;5041828;28;20472;-77
2021/11/20 03:18:32;;;;;;;61.47;36.67;;;6.70;99.90;;;;;;5036709;28;20025;-76
2021/11/20 03:20:58;;;;;;;57.00;33.03;;;6.60;99.90;;;;;;5040199;28;20021;-75
2021/11/20 03:23:28;;;;;;;56.00;34.08;;;6.60;99.90;;;;;;5047169;28;20514;-76
2021/11/20 03:25:54;;;;;;;52.95;32.58;;;6.70;99.90;;;;;;5040561;28;20029;-75
2021/11/20 03:28:20;;;;;;;56.42;34.38;;;6.70;99.90;;;;;;5041756;28;20025;-76
2021/11/20 03:30:46;;;;;;;57.42;33.72;;;6.70;99.90;;;;;;5045480;28;20025;-75
2021/11/20 03:33:13;;;;;;;53.55;33.55;;;6.80;99.90;;;;;;5043067;28;20048;-76
2021/11/20 03:35:39;;;;;;;57.33;33.25;;;6.70;99.90;;;;;;5037501;28;20475;-77
2021/11/20 03:38:05;;;;;;;58.25;34.35;;;6.70;99.90;;;;;;5043052;28;20029;-76
2021/11/20 03:40:31;;;;;;;53.97;33.10;;;6.90;99.90;;;;;;5040402;28;20033;-76
2021/11/20 03:42:57;;;;;;;54.97;32.72;;;6.80;99.90;;;;;;5044541;28;20048;-76
2021/11/20 03:45:26;;;;;;;53.80;32.88;;;6.80;99.90;;;;;;5038382;28;20017;-75
2021/11/20 03:47:52;;;;;;;53.85;33.33;;;6.80;99.90;;;;;;5043673;28;20108;-74
2021/11/20 03:50:18;;;;;;;54.40;31.45;;;6.80;99.90;;;;;;5035797;28;20131;-74
2021/11/20 03:52:45;;;;;;;56.72;32.80;;;6.80;99.90;;;;;;5045768;28;20571;-74
2021/11/20 03:55:14;;;;;;;55.90;32.60;;;6.80;99.90;;;;;;5057555;28;20091;-74
2021/11/20 03:57:40;;;;;;;56.47;32.42;;;6.70;99.90;;;;;;5038057;28;20041;-75
2021/11/20 04:00:09;;;;;;;55.55;32.65;;;6.70;99.90;;;;;;5039707;28;20075;-76
2021/11/20 04:02:35;;;;;;;59.22;33.78;;;6.70;99.90;;;;;;5056087;28;20030;-76
2021/11/20 04:05:01;;;;;;;57.00;33.17;;;6.80;99.90;;;;;;5046055;28;20021;-76
2021/11/20 04:07:26;;;;;;;55.67;33.72;;;6.70;99.90;;;;;;5044566;28;20035;-76
2021/11/20 04:09:52;;;;;;;53.58;32.65;;;6.70;99.90;;;;;;5054455;28;20048;-76
2021/11/20 04:12:18;;;;;;;55.28;32.67;;;6.70;99.90;;;;;;5042294;28;20028;-76
2021/11/20 04:14:43;;;;;;;57.13;33.38;;;6.80;99.90;;;;;;5042221;28;20060;-76
2021/11/20 04:17:09;;;;;;;55.75;34.17;;;6.80;99.90;;;;;;5041745;28;20536;-75
2021/11/20 04:19:35;;;;;;;55.92;32.63;;;6.70;99.90;;;;;;5043976;28;20078;-76
2021/11/20 04:22:00;;;;;;;56.70;32.97;;;6.80;99.90;;;;;;5042580;28;20530;-75
2021/11/20 04:24:26;;;;;;;57.88;33.50;;;6.70;99.90;;;;;;5058278;28;20388;-75
2021/11/20 04:26:51;;;;;;;57.20;33.22;;;6.70;99.90;;;;;;5045264;28;20026;-74
2021/11/20 04:29:18;;;;;;;58.20;34.25;;;6.70;99.90;;;;;;5033783;28;20029;-74
2021/11/20 04:31:44;;;;;;;59.40;34.35;;;6.70;99.90;;;;;;5043975;28;20545;-75
2021/11/20 04:34:10;;;;;;;58.65;33.72;;;6.70;99.90;;;;;;5056018;28;20085;-76
2021/11/20 04:36:36;;;;;;;59.55;34.15;;;6.70;99.90;;;;;;5045057;28;20037;-75
2021/11/20 04:39:04;;;;;;;53.05;32.55;;;6.70;99.90;;;;;;5039639;28;20502;-76
2021/11/20 04:41:30;;;;;;;57.33;33.47;;;6.70;99.90;;;;;;5044205;28;20053;-75
2021/11/20 04:43:55;;;;;;;55.17;32.60;;;6.70;99.90;;;;;;5038485;28;20026;-76
2021/11/20 04:46:23;;;;;;;56.47;33.13;;;6.70;99.90;;;;;;5030956;28;20075;-77
2021/11/20 04:48:50;;;;;;;53.60;32.53;;;6.70;99.90;;;;;;5023175;28;20030;-76
2021/11/20 04:51:16;;;;;;;56.38;32.53;;;6.70;99.90;;;;;;5027347;28;20079;-76
2021/11/20 04:53:45;;;;;;;56.95;32.67;;;6.70;99.90;;;;;;5021809;28;20030;-76
2021/11/20 04:56:13;;;;;;;53.90;33.42;;;6.80;99.90;;;;;;5024209;28;20510;-76
2021/11/20 04:58:40;;;;;;;56.08;32.15;;;6.80;99.90;;;;;;5020062;28;20029;-75
2021/11/20 05:01:06;;;;;;;62.88;34.45;;;6.80;99.90;;;;;;5018317;28;20034;-76
2021/11/20 05:03:32;;;;;;;59.45;33.58;;;6.70;99.90;;;;;;5022118;28;20029;-76
2021/11/20 05:05:58;;;;;;;61.75;34.30;;;6.70;99.90;;;;;;5024235;28;20018;-76
2021/11/20 05:08:24;;;;;;;60.33;34.15;;;6.70;99.90;;;;;;5021825;28;20411;-75
2021/11/20 05:10:51;;;;;;;59.53;33.97;;;6.70;99.90;;;;;;5018386;28;20685;-76
2021/11/20 05:13:18;;;;;;;61.83;34.70;;;6.70;99.90;;;;;;5021703;28;20022;-76
2021/11/20 05:15:46;;;;;;;60.78;34.42;;;6.70;99.90;;;;;;5025293;28;20034;-76
2021/11/20 05:18:13;;;;;;;55.85;32.17;;;6.70;99.90;;;;;;5022478;28;20088;-75
2021/11/20 05:20:39;;;;;;;60.25;33.13;;;6.70;99.90;;;;;;5018443;28;20029;-76
2021/11/20 05:23:05;;;;;;;61.40;33.65;;;6.70;99.90;;;;;;5020973;28;20034;-76
2021/11/20 05:25:31;;;;;;;62.88;34.03;;;6.70;99.90;;;;;;5025818;28;20522;-76
2021/11/20 05:27:56;;;;;;;60.67;34.75;;;6.70;99.90;;;;;;5026199;28;20108;-76
2021/11/20 05:30:32;;;;;;;59.92;33.67;;;6.70;99.90;;;;;;5031997;28;20026;-76
2021/11/20 05:32:59;;;;;;;61.88;34.58;;;6.70;99.90;;;;;;5027359;28;20017;-76
2021/11/20 05:35:26;;;;;;;63.72;34.42;;;6.70;99.90;;;;;;5035483;28;20053;-76
2021/11/20 05:37:53;;;;;;;62.80;34.80;;;6.70;99.90;;;;;;5022122;28;20036;-76
2021/11/20 05:40:19;;;;;;;62.53;34.25;;;6.70;99.90;;;;;;5028622;28;20037;-76
2021/11/20 05:42:48;;;;;;;59.72;34.08;;;6.70;99.90;;;;;;5027394;28;20109;-74
2021/11/20 05:45:15;;;;;;;63.33;33.25;;;6.70;99.90;;;;;;5024447;28;20398;-76
2021/11/20 05:47:41;;;;;;;62.22;33.65;;;6.70;99.90;;;;;;5027969;28;20040;-77
2021/11/20 05:50:08;;;;;;;61.20;33.08;;;6.70;99.90;;;;;;5028116;28;20026;-75
2021/11/20 05:52:34;;;;;;;60.13;34.28;;;6.70;99.90;;;;;;5026779;28;20364;-76
2021/11/20 05:55:00;;;;;;;61.55;33.17;;;6.70;99.90;;;;;;5021726;28;20032;-77
2021/11/20 05:57:26;;;;;;;60.03;33.08;;;6.70;99.90;;;;;;5033700;28;20029;-76
2021/11/20 05:59:52;;;;;;;64.38;35.03;;;6.70;99.90;;;;;;5020623;28;20056;-77
2021/11/20 06:02:17;;;;;;;66.05;34.58;;;6.70;99.90;;;;;;5035087;28;20037;-76
2021/11/20 06:04:44;;;;;;;64.57;34.38;;;6.70;99.90;;;;;;5030103;28;20084;-77
2021/11/20 06:07:12;;;;;;;63.10;34.50;;;6.70;99.90;;;;;;5015893;28;20473;-76
2021/11/20 06:09:39;;;;;;;62.08;33.33;;;6.70;99.90;;;;;;5015204;28;20026;-76
2021/11/20 06:12:06;;;;;;;64.10;34.88;;;6.70;99.90;;;;;;5026681;28;20053;-77
2021/11/20 06:14:31;;;;;;;65.40;34.80;;;6.70;99.90;;;;;;5022428;28;20056;-76
2021/11/20 06:16:57;;;;;;;64.57;34.00;;;6.70;99.90;;;;;;5024300;28;20528;-76
2021/11/20 06:19:23;;;;;;;62.67;34.20;;;6.70;99.90;;;;;;5034559;28;20029;-77
2021/11/20 06:21:48;;;;;;;62.63;33.55;;;6.80;99.90;;;;;;5034729;28;20502;-77
2021/11/20 06:24:14;;;;;;;61.40;34.60;;;6.80;99.90;;;;;;5033320;28;20025;-77
2021/11/20 06:26:40;;;;;;;66.70;35.72;;;6.70;99.90;;;;;;5021656;28;20034;-77
2021/11/20 06:29:06;;;;;;;63.33;33.72;;;6.70;99.90;;;;;;5021030;28;20036;-77
2021/11/20 06:31:32;;;;;;;64.78;34.50;;;6.70;99.90;;;;;;5020079;28;20069;-77
2021/11/20 06:34:00;;;;;;;61.15;33.35;;;6.70;99.90;;;;;;5020552;28;20037;-75
2021/11/20 06:36:27;;;;;;;66.10;34.45;;;6.70;99.90;;;;;;5034513;28;20053;-75
2021/11/20 06:38:53;;;;;;;61.80;33.88;;;6.70;99.90;;;;;;5025305;28;20476;-76
2021/11/20 06:41:18;;;;;;;62.15;33.85;;;6.70;99.90;;;;;;5027556;28;20032;-75
2021/11/20 06:43:44;;;;;;;68.60;35.00;;;6.70;99.90;;;;;;5021321;28;20419;-75
2021/11/20 06:46:13;;;;;;;68.63;36.45;;;6.70;99.90;;;;;;5023130;28;20032;-75
2021/11/20 06:48:40;;;;;;;62.05;34.45;;;6.70;99.90;;;;;;5020619;28;20045;-74
2021/11/20 06:51:07;;;;;;;65.03;34.90;;;6.70;99.90;;;;;;5049255;28;20017;-75
2021/11/20 06:53:33;;;;;;;64.32;33.92;;;6.70;99.90;;;;;;5041971;28;20463;-75
2021/11/20 06:55:59;;;;;;;62.83;33.03;;;6.80;99.90;;;;;;5027051;28;20025;-75
2021/11/20 07:01:07;;;;;;;58.55;32.83;;;6.70;99.90;;;;;;5020545;28;20032;-75
2021/11/20 07:03:43;;;;;;;67.32;35.55;;;6.70;99.90;;;;;;5024293;28;20088;-75
2021/11/20 07:06:12;;;;;;;61.35;34.55;;;6.70;99.90;;;;;;5030375;28;20056;-74
2021/11/20 07:08:39;;;;;;;65.10;35.38;;;6.70;99.90;;;;;;5022533;28;20057;-75
2021/11/20 07:11:05;;;;;;;64.78;36.13;;;6.70;99.90;;;;;;5027095;28;20115;-75
2021/11/20 07:13:31;;;;;;;63.60;35.50;;;6.80;99.90;;;;;;5025211;28;20533;-75
2021/11/20 07:15:57;;;;;;;62.58;35.30;;;6.80;99.90;;;;;;5020288;28;20029;-75
2021/11/20 07:18:24;;;;;;;64.05;34.15;;;6.80;99.90;;;;;;5021061;28;20025;-75
2021/11/20 07:20:51;;;;;;;59.05;32.28;;;6.80;99.90;;;;;;5027089;28;20072;-75
2021/11/20 07:23:17;;;;;;;59.17;33.65;;;6.80;99.90;;;;;;5013644;28;20029;-74
2021/11/20 07:25:43;;;;;;;57.28;33.20;;;6.80;99.90;;;;;;5030747;28;20655;-75
2021/11/20 07:28:10;;;;;;;61.13;35.30;;;6.80;99.90;;;;;;5022390;28;20097;-76
2021/11/20 07:30:37;;;;;;;58.45;33.35;;;6.80;99.90;;;;;;5018023;28;20483;-76
2021/11/20 07:33:04;;;;;;;58.60;32.78;;;6.80;99.90;;;;;;5033384;28;20034;-76
2021/11/20 07:35:37;;;;;;;68.90;38.28;;;6.90;99.90;;;;;;5027673;28;20026;-75
2021/11/20 07:38:06;;;;;;;69.53;40.25;;;6.90;99.90;;;;;;5012745;28;20033;-75
2021/11/20 07:40:36;;;;;;;61.33;35.50;;;6.80;99.90;;;;;;5026314;28;20424;-75
2021/11/20 07:43:01;;;;;;;69.13;43.00;;;6.90;99.90;;;;;;5025558;28;20032;-76
2021/11/20 07:45:27;;;;;;;67.18;37.08;;;6.90;99.90;;;;;;5020869;28;20021;-75
2021/11/20 07:47:52;;;;;;;61.03;35.60;;;6.80;99.90;;;;;;5032329;28;20438;-76
2021/11/20 07:50:21;;;;;;;67.47;37.78;;;6.80;99.90;;;;;;5018740;28;20555;-76
2021/11/20 07:52:47;;;;;;;59.15;34.30;;;6.90;99.90;;;;;;5032047;28;20022;-74
2021/11/20 07:55:14;;;;;;;57.30;34.28;;;6.90;99.90;;;;;;5021147;28;20044;-74
2021/11/20 07:57:40;;;;;;;64.53;34.75;;;6.90;99.90;;;;;;5019366;28;20088;-74
2021/11/20 08:00:19;;;;;;;59.95;34.63;;;7.00;99.90;;;;;;5024522;28;20029;-74
2021/11/20 08:02:45;;;;;;;60.85;32.35;;;6.90;99.90;;;;;;5025844;28;20030;-74
2021/11/20 08:05:11;;;;;;;62.00;33.47;;;7.00;99.90;;;;;;5021858;28;20040;-74
2021/11/20 08:07:37;;;;;;;63.22;34.50;;;7.00;99.90;;;;;;5017922;28;20072;-74
2021/11/20 08:10:06;;;;;;;60.83;33.83;;;7.00;99.90;;;;;;5022333;28;20025;-74
2021/11/20 08:12:32;;;;;;;60.10;33.05;;;7.00;99.90;;;;;;5028696;28;20109;-74
2021/11/20 08:14:58;;;;;;;54.65;32.83;;;7.00;99.90;;;;;;5021771;28;20105;-73
2021/11/20 08:17:24;;;;;;;63.08;34.90;;;7.10;99.90;;;;;;5012059;28;20101;-74
2021/11/20 08:19:49;;;;;;;59.78;33.10;;;7.10;99.90;;;;;;5010662;28;20362;-74
2021/11/20 08:22:15;;;;;;;59.17;32.45;;;7.10;99.90;;;;;;5011427;28;20028;-74
2021/11/20 08:24:41;;;;;;;55.22;31.58;;;7.10;99.90;;;;;;5012708;28;20480;-74
2021/11/20 08:27:09;;;;;;;59.35;33.33;;;7.00;99.90;;;;;;5029723;28;20017;-74
2021/11/20 08:29:37;;;;;;;62.10;34.92;;;7.00;99.90;;;;;;5020975;28;20021;-74
2021/11/20 08:32:06;;;;;;;53.92;32.13;;;7.10;99.90;;;;;;5010720;28;20022;-75
2021/11/20 08:34:33;;;;;;;57.78;32.88;;;7.10;99.90;;;;;;5023672;28;20053;-74
2021/11/20 08:37:02;;;;;;;58.88;34.25;;;7.10;99.90;;;;;;5031894;28;20025;-74
2021/11/20 08:39:29;;;;;;;57.60;33.22;;;7.00;99.90;;;;;;5031914;28;20128;-74
2021/11/20 08:41:55;;;;;;;61.35;34.15;;;7.10;99.90;;;;;;5030250;28;20084;-74
2021/11/20 08:44:21;;;;;;;63.88;35.10;;;7.10;99.90;;;;;;5031600;28;20053;-74
2021/11/20 08:46:47;;;;;;;60.03;34.00;;;7.10;99.90;;;;;;5031431;28;20053;-74
2021/11/20 08:49:14;;;;;;;57.60;34.10;;;7.10;99.90;;;;;;5031910;28;20072;-74
2021/11/20 08:51:40;;;;;;;59.30;33.90;;;7.10;99.90;;;;;;5030238;28;20022;-74
2021/11/20 08:54:06;;;;;;;58.90;33.25;;;7.10;99.90;;;;;;5031989;28;20424;-74
2021/11/20 08:56:39;;;;;;;61.45;33.67;;;7.10;99.90;;;;;;5031728;28;20029;-74
2021/11/20 08:59:06;;;;;;;59.15;34.05;;;7.10;99.90;;;;;;5031564;28;20032;-74
2021/11/20 09:01:40;;;;;;;61.42;35.58;;;7.20;99.90;;;;;;5031264;28;20111;-74
2021/11/20 09:04:18;;;;;;;60.30;33.58;;;7.20;99.90;;;;;;5031510;28;20523;-74
2021/11/20 09:07:20;;;;;;;58.72;34.33;;;7.20;99.90;;;;;;5030036;28;20044;-74
2021/11/20 09:09:48;;;;;;;58.80;34.03;;;7.20;99.90;;;;;;5031304;28;20052;-74
2021/11/20 09:12:32;;;;;;;56.80;33.75;;;7.20;99.90;;;;;;5030171;28;20018;-73
2021/11/20 09:15:06;;;;;;;57.80;33.63;;;7.20;99.90;;;;;;5026825;28;20029;-74
2021/11/20 09:17:32;;;;;;;56.90;34.08;;;7.20;99.90;;;;;;5030057;28;20064;-74
2021/11/20 09:19:58;;;;;;;58.60;34.13;;;7.30;99.90;;;;;;5031195;28;20029;-74
2021/11/20 09:22:24;;;;;;;56.58;33.33;;;7.30;99.90;;;;;;5031011;28;20033;-74
2021/11/20 09:24:50;;;;;;;59.90;34.17;;;7.30;99.90;;;;;;5029976;28;20022;-74
2021/11/20 09:27:16;;;;;;;83.40;48.10;;;7.30;99.90;;;;;;5031330;28;20053;-74
2021/11/20 09:29:42;;;;;;;67.40;35.97;;;7.30;99.90;;;;;;5019117;28;20469;-74
2021/11/20 09:32:08;;;;;;;61.83;35.70;;;7.30;99.90;;;;;;5010351;28;20071;-74
2021/11/20 09:34:34;;;;;;;60.97;34.15;;;7.40;99.90;;;;;;5021987;28;20569;-74
2021/11/20 09:37:01;;;;;;;62.42;35.67;;;7.40;99.90;;;;;;5031231;28;20220;-74
2021/11/20 09:39:30;;;;;;;59.13;33.58;;;7.40;99.90;;;;;;5030037;28;20488;-74
2021/11/20 09:42:30;;;;;;;54.35;32.83;;;7.40;99.90;;;;;;5030886;28;20025;-74
2021/11/20 09:45:01;;;;;;;54.88;32.65;;;7.40;99.90;;;;;;5014055;28;20048;-74
2021/11/20 09:47:37;;;;;;;55.45;31.42;;;7.50;99.90;;;;;;5011603;28;20026;-74
2021/11/20 09:50:27;;;;;;;52.75;30.42;;;7.50;99.90;;;;;;5011563;28;20026;-74
2021/11/20 09:52:53;;;;;;;54.20;31.08;;;7.50;99.90;;;;;;5011197;28;20038;-74
2021/11/20 09:55:44;;;;;;;52.83;31.17;;;7.60;99.90;;;;;;5011361;28;20053;-74
2021/11/20 09:58:25;;;;;;;52.00;30.65;;;7.60;99.90;;;;;;5028898;28;20121;-74
2021/11/20 10:00:50;;;;;;;54.30;30.63;;;7.60;99.90;;;;;;5030705;28;20033;-74
2021/11/20 10:03:35;;;;;;;48.53;29.30;;;7.60;99.90;;;;;;5022789;28;20025;-74
2021/11/20 10:06:13;;;;;;;51.47;31.35;;;7.70;99.90;;;;;;5028890;28;20029;-74
2021/11/20 10:08:43;;;;;;;50.55;30.35;;;7.70;99.90;;;;;;5029638;28;20053;-74
2021/11/20 10:11:08;;;;;;;48.42;29.10;;;7.60;99.90;;;;;;5030673;28;20025;-74
2021/11/20 10:13:51;;;;;;;57.20;32.30;;;7.70;99.90;;;;;;5033064;28;20025;-73
2021/11/20 10:16:49;;;;;;;53.45;31.08;;;7.80;99.90;;;;;;5034454;28;20040;-74
2021/11/20 10:19:23;;;;;;;54.05;31.85;;;7.80;99.90;;;;;;5033916;28;20064;-74
2021/11/20 10:22:45;;;;;;;49.40;30.13;;;7.80;99.90;;;;;;5020651;28;20546;-74
2021/11/20 10:25:34;;;;;;;50.75;29.83;;;7.80;99.90;;;;;;5011938;28;20500;-74
2021/11/20 10:28:24;;;;;;;50.47;29.40;;;7.90;99.90;;;;;;5012092;28;20030;-74
2021/11/20 10:30:59;;;;;;;46.47;29.15;;;7.90;99.90;;;;;;5021700;28;20095;-74
2021/11/20 10:33:33;;;;;;;50.95;29.17;;;7.90;99.90;;;;;;5034137;28;20028;-74
2021/11/20 10:36:05;;;;;;;49.47;29.92;;;7.90;99.90;;;;;;5035125;28;20477;-74
2021/11/20 10:39:06;;;;;;;50.47;30.48;;;7.90;99.90;;;;;;5015664;28;20052;-74
2021/11/20 10:41:41;;;;;;;52.67;31.42;;;8.00;99.90;;;;;;5018887;28;20549;-74
2021/11/20 10:44:22;;;;;;;50.20;30.87;;;8.10;99.90;;;;;;5024493;28;20109;-74
2021/11/20 10:47:13;;;;;;;48.50;29.77;;;8.00;99.90;;;;;;5012867;28;20396;-74
2021/11/20 10:50:05;;;;;;;44.38;28.33;;;8.00;99.90;;;;;;5013929;28;20057;-74
2021/11/20 10:52:51;;;;;;;45.03;27.48;;;8.00;99.90;;;;;;5015916;28;20068;-74
2021/11/20 10:55:50;;;;;;;44.58;28.17;;;7.90;99.90;;;;;;5022209;28;20021;-74
2021/11/20 10:58:56;;;;;;;41.60;27.17;;;8.00;99.90;;;;;;5033562;28;20025;-75
2021/11/20 11:01:53;;;;;;;42.20;26.77;;;8.00;99.90;;;;;;5030340;28;20029;-75
2021/11/20 11:04:56;;;;;;;42.33;27.77;;;8.00;99.90;;;;;;5036670;28;20104;-74
2021/11/20 11:07:27;;;;;;;53.90;28.52;;;8.00;99.90;;;;;;5038203;28;20379;-75
2021/11/20 11:10:01;;;;;;;40.83;26.38;;;8.10;99.90;;;;;;5041553;28;20091;-74
2021/11/20 11:12:55;;;;;;;39.00;24.65;;;8.10;99.90;;;;;;5039344;28;20537;-74
2021/11/20 11:15:52;;;;;;;40.90;26.02;;;8.10;99.90;;;;;;5038970;28;20575;-74
2021/11/20 11:18:45;;;;;;;41.63;27.13;;;8.10;99.90;;;;;;5037415;28;20021;-74
2021/11/20 11:21:41;;;;;;;42.85;27.70;;;8.10;99.90;;;;;;5011327;28;20049;-73
2021/11/20 11:24:16;;;;;;;40.63;26.90;;;8.10;99.90;;;;;;5033986;28;20037;-74
2021/11/20 11:27:09;;;;;;;42.90;26.17;;;8.10;99.90;;;;;;5023128;28;20030;-73
2021/11/20 11:29:59;;;;;;;41.65;25.13;;;8.10;99.90;;;;;;5013558;28;20017;-73
2021/11/20 11:32:30;;;;;;;42.75;26.88;;;8.10;99.90;;;;;;5020038;28;20076;-73
2021/11/20 11:35:04;;;;;;;37.97;26.05;;;8.20;99.90;;;;;;5033066;28;20112;-74
2021/11/20 11:37:40;;;;;;;39.83;27.52;;;8.30;99.90;;;;;;5033172;28;20087;-74
2021/11/20 11:40:31;;;;;;;39.35;26.02;;;8.30;99.90;;;;;;5033267;28;20021;-74
2021/11/20 11:43:40;;;;;;;42.75;27.65;;;8.30;99.90;;;;;;5032653;28;20037;-74
2021/11/20 11:46:21;;;;;;;37.90;25.88;;;8.30;99.90;;;;;;5026236;28;20029;-74
2021/11/20 11:49:26;;;;;;;39.95;27.23;;;8.30;99.90;;;;;;5022932;28;20022;-74
2021/11/20 11:52:31;;;;;;;38.85;26.02;;;8.30;99.90;;;;;;5020154;28;20376;-73
2021/11/20 11:55:05;;;;;;;41.80;27.27;;;8.30;99.90;;;;;;5032678;28;20488;-73
2021/11/20 11:58:07;;;;;;;41.85;26.40;;;8.40;99.90;;;;;;5032440;28;20042;-75
2021/11/20 12:00:35;;;;;;;37.70;26.00;;;8.30;99.90;;;;;;5032520;28;20017;-75
2021/11/20 12:03:23;;;;;;;45.00;27.23;;;8.40;99.90;;;;;;5032353;28;20036;-74
2021/11/20 12:06:20;;;;;;;41.95;29.33;;;8.30;99.90;;;;;;5032288;28;20029;-74
2021/11/20 12:08:52;;;;;;;41.33;26.55;;;8.30;99.90;;;;;;5032253;28;20503;-74
2021/11/20 12:11:40;;;;;;;42.55;27.15;;;8.20;99.90;;;;;;5032394;28;20033;-74
2021/11/20 12:14:20;;;;;;;37.38;24.35;;;8.30;99.90;;;;;;5031026;28;20029;-74
2021/11/20 12:17:10;;;;;;;41.03;26.20;;;8.30;99.90;;;;;;5032342;28;20109;-74
2021/11/20 12:20:02;;;;;;;37.20;25.42;;;8.30;99.90;;;;;;5032648;28;20468;-74
2021/11/20 12:22:42;;;;;;;33.92;24.38;;;8.30;99.90;;;;;;5032111;28;20388;-74
2021/11/20 12:25:35;;;;;;;39.17;24.80;;;8.30;99.90;;;;;;5018232;28;20096;-74
2021/11/20 12:28:05;;;;;;;38.03;25.65;;;8.40;99.90;;;;;;5012531;28;20026;-74
2021/11/20 12:30:55;;;;;;;38.05;25.20;;;8.30;99.90;;;;;;5012139;28;20065;-74
2021/11/20 12:33:46;;;;;;;37.72;25.23;;;8.40;99.90;;;;;;5013822;28;20060;-74
2021/11/20 12:36:22;;;;;;;38.78;26.48;;;8.50;99.90;;;;;;5031647;28;20086;-75
2021/11/20 12:39:25;;;;;;;36.78;24.92;;;8.50;99.90;;;;;;5031949;28;20029;-73
2021/11/20 12:42:16;;;;;;;42.72;26.55;;;8.50;99.90;;;;;;5029284;28;20047;-73
2021/11/20 12:45:14;;;;;;;40.83;28.33;;;8.50;99.90;;;;;;5031767;28;20026;-73
2021/11/20 12:47:42;;;;;;;40.58;27.63;;;8.50;99.90;;;;;;5030157;28;20458;-75
2021/11/20 12:50:21;;;;;;;39.47;25.48;;;8.50;99.90;;;;;;5031673;28;20017;-75
2021/11/20 12:52:47;;;;;;;44.70;28.13;;;8.50;99.90;;;;;;5031532;28;20561;-75
2021/11/20 12:55:19;;;;;;;39.10;26.88;;;8.50;99.90;;;;;;5031822;28;20100;-74
2021/11/20 12:57:48;;;;;;;36.50;25.67;;;8.50;99.90;;;;;;5031441;28;20052;-75
2021/11/20 13:00:20;;;;;;;39.70;26.83;;;8.50;99.90;;;;;;5031341;28;20104;-73
2021/11/20 13:02:57;;;;;;;42.05;26.75;;;8.50;99.90;;;;;;5031308;28;20036;-76
2021/11/20 13:05:23;;;;;;;37.70;26.45;;;8.50;99.90;;;;;;5031611;28;20139;-75